sensor_id;sensor_type;location;lat;lon;timestamp;P1;durP1;ratioP1;P2;durP2;ratioP2
59512;SDS011;45330;51.634;5.562;2022-08-21T00:02:02;16.33;;;6.95;;
59512;SDS011;45330;51.634;5.562;2022-08-21T00:04:28;17.35;;;7.45;;
59512;SDS011;45330;51.634;5.562;2022-08-21T00:06:54;18.60;;;7.72;;
59512;SDS011;45330;51.634;5.562;2022-08-21T00:09:20;18.40;;;7.20;;
59512;SDS011;45330;51.634;5.562;2022-08-21T00:11:46;17.58;;;7.35;;
59512;SDS011;45330;51.634;5.562;2022-08-21T00:14:12;17.65;;;8.10;;
59512;SDS011;45330;51.634;5.562;2022-08-21T00:16:39;17.85;;;7.63;;
59512;SDS011;45330;51.634;5.562;2022-08-21T00:19:04;18.58;;;8.18;;
59512;SDS011;45330;51.634;5.562;2022-08-21T00:21:31;19.27;;;7.72;;
59512;SDS011;45330;51.634;5.562;2022-08-21T00:23:57;18.75;;;7.63;;
59512;SDS011;45330;51.634;5.562;2022-08-21T00:26:23;18.17;;;7.55;;
59512;SDS011;45330;51.634;5.562;2022-08-21T00:28:48;18.67;;;7.65;;
59512;SDS011;45330;51.634;5.562;2022-08-21T00:31:14;24.55;;;8.02;;
59512;SDS011;45330;51.634;5.562;2022-08-21T00:33:40;16.77;;;7.32;;
59512;SDS011;45330;51.634;5.562;2022-08-21T00:36:06;18.98;;;7.43;;
59512;SDS011;45330;51.634;5.562;2022-08-21T00:38:31;19.13;;;7.65;;
59512;SDS011;45330;51.634;5.562;2022-08-21T00:40:58;17.73;;;6.78;;
59512;SDS011;45330;51.634;5.562;2022-08-21T00:43:29;18.00;;;7.80;;
59512;SDS011;45330;51.634;5.562;2022-08-21T00:45:56;19.08;;;7.30;;
59512;SDS011;45330;51.634;5.562;2022-08-21T00:48:25;17.20;;;7.47;;
59512;SDS011;45330;51.634;5.562;2022-08-21T00:50:53;17.70;;;6.88;;
59512;SDS011;45330;51.634;5.562;2022-08-21T00:53:22;18.23;;;7.45;;
59512;SDS011;45330;51.634;5.562;2022-08-21T00:55:49;20.48;;;7.20;;
59512;SDS011;45330;51.634;5.562;2022-08-21T00:58:15;19.42;;;7.47;;
59512;SDS011;45330;51.634;5.562;2022-08-21T01:00:42;16.70;;;7.85;;
59512;SDS011;45330;51.634;5.562;2022-08-21T01:03:10;17.92;;;7.82;;
59512;SDS011;45330;51.634;5.562;2022-08-21T01:05:39;17.77;;;7.38;;
59512;SDS011;45330;51.634;5.562;2022-08-21T01:08:05;18.25;;;7.40;;
59512;SDS011;45330;51.634;5.562;2022-08-21T01:10:32;15.82;;;6.82;;
59512;SDS011;45330;51.634;5.562;2022-08-21T01:12:58;18.80;;;7.25;;
59512;SDS011;45330;51.634;5.562;2022-08-21T01:15:25;18.75;;;7.82;;
59512;SDS011;45330;51.634;5.562;2022-08-21T01:17:55;18.00;;;7.47;;
59512;SDS011;45330;51.634;5.562;2022-08-21T01:20:20;19.67;;;7.88;;
59512;SDS011;45330;51.634;5.562;2022-08-21T01:22:46;17.67;;;7.40;;
59512;SDS011;45330;51.634;5.562;2022-08-21T01:25:12;19.38;;;8.10;;
59512;SDS011;45330;51.634;5.562;2022-08-21T01:27:40;18.20;;;8.15;;
59512;SDS011;45330;51.634;5.562;2022-08-21T01:30:11;19.88;;;7.57;;
59512;SDS011;45330;51.634;5.562;2022-08-21T01:32:39;20.67;;;8.48;;
59512;SDS011;45330;51.634;5.562;2022-08-21T01:35:05;19.23;;;8.18;;
59512;SDS011;45330;51.634;5.562;2022-08-21T01:37:32;18.45;;;8.10;;
59512;SDS011;45330;51.634;5.562;2022-08-21T01:39:57;17.90;;;7.95;;
59512;SDS011;45330;51.634;5.562;2022-08-21T01:42:23;21.15;;;8.20;;
59512;SDS011;45330;51.634;5.562;2022-08-21T01:44:48;19.08;;;7.93;;
59512;SDS011;45330;51.634;5.562;2022-08-21T01:47:14;18.67;;;7.55;;
59512;SDS011;45330;51.634;5.562;2022-08-21T01:49:40;18.13;;;8.00;;
59512;SDS011;45330;51.634;5.562;2022-08-21T01:52:07;19.50;;;7.60;;
59512;SDS011;45330;51.634;5.562;2022-08-21T01:54:32;17.98;;;8.10;;
59512;SDS011;45330;51.634;5.562;2022-08-21T01:56:58;19.33;;;8.45;;
59512;SDS011;45330;51.634;5.562;2022-08-21T01:59:25;19.42;;;7.78;;
59512;SDS011;45330;51.634;5.562;2022-08-21T02:01:51;17.80;;;8.13;;
59512;SDS011;45330;51.634;5.562;2022-08-21T02:04:19;20.75;;;8.30;;
59512;SDS011;45330;51.634;5.562;2022-08-21T02:06:44;18.42;;;8.52;;
59512;SDS011;45330;51.634;5.562;2022-08-21T02:09:10;18.63;;;8.32;;
59512;SDS011;45330;51.634;5.562;2022-08-21T02:11:36;19.10;;;8.55;;
59512;SDS011;45330;51.634;5.562;2022-08-21T02:14:05;17.98;;;8.43;;
59512;SDS011;45330;51.634;5.562;2022-08-21T02:16:40;18.83;;;8.15;;
59512;SDS011;45330;51.634;5.562;2022-08-21T02:19:07;18.90;;;8.13;;
59512;SDS011;45330;51.634;5.562;2022-08-21T02:21:33;19.05;;;8.82;;
59512;SDS011;45330;51.634;5.562;2022-08-21T02:23:58;20.48;;;8.30;;
59512;SDS011;45330;51.634;5.562;2022-08-21T02:26:24;19.60;;;8.35;;
59512;SDS011;45330;51.634;5.562;2022-08-21T02:28:49;21.17;;;9.32;;
59512;SDS011;45330;51.634;5.562;2022-08-21T02:31:15;17.95;;;8.35;;
59512;SDS011;45330;51.634;5.562;2022-08-21T02:33:40;20.42;;;8.30;;
59512;SDS011;45330;51.634;5.562;2022-08-21T02:36:06;19.55;;;8.50;;
59512;SDS011;45330;51.634;5.562;2022-08-21T02:38:33;20.75;;;9.00;;
59512;SDS011;45330;51.634;5.562;2022-08-21T02:41:04;18.48;;;8.90;;
59512;SDS011;45330;51.634;5.562;2022-08-21T02:43:31;20.90;;;9.38;;
59512;SDS011;45330;51.634;5.562;2022-08-21T02:45:56;20.27;;;9.07;;
59512;SDS011;45330;51.634;5.562;2022-08-21T02:48:24;21.90;;;9.00;;
59512;SDS011;45330;51.634;5.562;2022-08-21T02:50:53;20.45;;;8.80;;
59512;SDS011;45330;51.634;5.562;2022-08-21T02:53:20;20.10;;;9.32;;
59512;SDS011;45330;51.634;5.562;2022-08-21T02:55:47;19.27;;;8.88;;
59512;SDS011;45330;51.634;5.562;2022-08-21T02:58:18;19.33;;;9.20;;
59512;SDS011;45330;51.634;5.562;2022-08-21T03:00:48;19.45;;;9.20;;
59512;SDS011;45330;51.634;5.562;2022-08-21T03:03:13;22.75;;;9.20;;
59512;SDS011;45330;51.634;5.562;2022-08-21T03:05:39;19.33;;;9.05;;
59512;SDS011;45330;51.634;5.562;2022-08-21T03:08:06;20.17;;;8.90;;
59512;SDS011;45330;51.634;5.562;2022-08-21T03:13:06;20.27;;;8.55;;
59512;SDS011;45330;51.634;5.562;2022-08-21T03:15:33;19.33;;;9.05;;
59512;SDS011;45330;51.634;5.562;2022-08-21T03:17:58;21.48;;;9.30;;
59512;SDS011;45330;51.634;5.562;2022-08-21T03:20:26;20.08;;;9.38;;
59512;SDS011;45330;51.634;5.562;2022-08-21T03:22:53;21.63;;;9.88;;
59512;SDS011;45330;51.634;5.562;2022-08-21T03:25:19;19.60;;;8.85;;
59512;SDS011;45330;51.634;5.562;2022-08-21T03:27:46;19.98;;;9.38;;
59512;SDS011;45330;51.634;5.562;2022-08-21T03:30:14;19.75;;;9.02;;
59512;SDS011;45330;51.634;5.562;2022-08-21T03:32:40;19.92;;;9.10;;
59512;SDS011;45330;51.634;5.562;2022-08-21T03:35:06;20.45;;;9.38;;
59512;SDS011;45330;51.634;5.562;2022-08-21T03:37:33;21.08;;;9.45;;
59512;SDS011;45330;51.634;5.562;2022-08-21T03:39:58;22.13;;;10.93;;
59512;SDS011;45330;51.634;5.562;2022-08-21T03:42:24;21.00;;;9.63;;
59512;SDS011;45330;51.634;5.562;2022-08-21T03:44:49;19.50;;;9.75;;
59512;SDS011;45330;51.634;5.562;2022-08-21T03:47:15;18.88;;;9.50;;
59512;SDS011;45330;51.634;5.562;2022-08-21T03:49:40;21.63;;;10.00;;
59512;SDS011;45330;51.634;5.562;2022-08-21T03:52:06;20.63;;;9.57;;
59512;SDS011;45330;51.634;5.562;2022-08-21T03:54:32;19.50;;;9.55;;
59512;SDS011;45330;51.634;5.562;2022-08-21T03:56:57;19.27;;;9.55;;
59512;SDS011;45330;51.634;5.562;2022-08-21T03:59:23;19.98;;;9.73;;
59512;SDS011;45330;51.634;5.562;2022-08-21T04:01:57;21.65;;;9.80;;
59512;SDS011;45330;51.634;5.562;2022-08-21T04:04:25;21.08;;;10.07;;
59512;SDS011;45330;51.634;5.562;2022-08-21T04:06:51;19.83;;;9.88;;
59512;SDS011;45330;51.634;5.562;2022-08-21T04:09:17;20.15;;;9.68;;
59512;SDS011;45330;51.634;5.562;2022-08-21T04:11:44;19.40;;;10.20;;
59512;SDS011;45330;51.634;5.562;2022-08-21T04:14:11;21.48;;;9.90;;
59512;SDS011;45330;51.634;5.562;2022-08-21T04:16:37;21.90;;;10.50;;
59512;SDS011;45330;51.634;5.562;2022-08-21T04:19:02;20.98;;;11.25;;
59512;SDS011;45330;51.634;5.562;2022-08-21T04:21:28;21.42;;;11.20;;
59512;SDS011;45330;51.634;5.562;2022-08-21T04:23:54;22.30;;;11.52;;
59512;SDS011;45330;51.634;5.562;2022-08-21T04:26:20;23.08;;;12.02;;
59512;SDS011;45330;51.634;5.562;2022-08-21T04:28:46;22.80;;;11.93;;
59512;SDS011;45330;51.634;5.562;2022-08-21T04:31:11;22.60;;;11.75;;
59512;SDS011;45330;51.634;5.562;2022-08-21T04:33:37;21.92;;;11.73;;
59512;SDS011;45330;51.634;5.562;2022-08-21T04:36:03;22.05;;;11.75;;
59512;SDS011;45330;51.634;5.562;2022-08-21T04:38:29;22.83;;;13.18;;
59512;SDS011;45330;51.634;5.562;2022-08-21T04:40:56;23.27;;;12.52;;
59512;SDS011;45330;51.634;5.562;2022-08-21T04:43:21;22.38;;;12.38;;
59512;SDS011;45330;51.634;5.562;2022-08-21T04:45:48;25.25;;;13.35;;
59512;SDS011;45330;51.634;5.562;2022-08-21T04:48:16;22.08;;;12.57;;
59512;SDS011;45330;51.634;5.562;2022-08-21T04:50:49;26.48;;;13.57;;
59512;SDS011;45330;51.634;5.562;2022-08-21T04:53:26;23.85;;;12.52;;
59512;SDS011;45330;51.634;5.562;2022-08-21T04:56:15;22.90;;;13.50;;
59512;SDS011;45330;51.634;5.562;2022-08-21T04:58:45;23.80;;;12.52;;
59512;SDS011;45330;51.634;5.562;2022-08-21T05:01:14;23.27;;;13.02;;
59512;SDS011;45330;51.634;5.562;2022-08-21T05:03:43;24.75;;;13.38;;
59512;SDS011;45330;51.634;5.562;2022-08-21T05:06:11;25.77;;;13.77;;
59512;SDS011;45330;51.634;5.562;2022-08-21T05:08:39;22.67;;;13.25;;
59512;SDS011;45330;51.634;5.562;2022-08-21T05:11:06;23.27;;;13.45;;
59512;SDS011;45330;51.634;5.562;2022-08-21T05:13:31;22.65;;;12.18;;
59512;SDS011;45330;51.634;5.562;2022-08-21T05:15:57;23.83;;;12.93;;
59512;SDS011;45330;51.634;5.562;2022-08-21T05:18:23;25.23;;;13.05;;
59512;SDS011;45330;51.634;5.562;2022-08-21T05:20:49;25.45;;;13.13;;
59512;SDS011;45330;51.634;5.562;2022-08-21T05:23:15;20.90;;;11.50;;
59512;SDS011;45330;51.634;5.562;2022-08-21T05:25:41;22.77;;;11.48;;
59512;SDS011;45330;51.634;5.562;2022-08-21T05:28:08;20.73;;;9.40;;
59512;SDS011;45330;51.634;5.562;2022-08-21T05:30:33;19.73;;;9.25;;
59512;SDS011;45330;51.634;5.562;2022-08-21T05:33:00;19.05;;;8.35;;
59512;SDS011;45330;51.634;5.562;2022-08-21T05:35:27;17.65;;;7.63;;
59512;SDS011;45330;51.634;5.562;2022-08-21T05:37:54;18.63;;;7.28;;
59512;SDS011;45330;51.634;5.562;2022-08-21T05:40:20;20.00;;;6.93;;
59512;SDS011;45330;51.634;5.562;2022-08-21T05:42:46;17.92;;;6.95;;
59512;SDS011;45330;51.634;5.562;2022-08-21T05:45:12;15.85;;;6.65;;
59512;SDS011;45330;51.634;5.562;2022-08-21T05:47:37;17.10;;;6.22;;
59512;SDS011;45330;51.634;5.562;2022-08-21T05:50:03;19.00;;;6.53;;
59512;SDS011;45330;51.634;5.562;2022-08-21T05:52:29;18.48;;;6.82;;
59512;SDS011;45330;51.634;5.562;2022-08-21T05:54:54;19.13;;;6.35;;
59512;SDS011;45330;51.634;5.562;2022-08-21T05:57:20;17.95;;;6.10;;
59512;SDS011;45330;51.634;5.562;2022-08-21T05:59:46;16.52;;;5.63;;
59512;SDS011;45330;51.634;5.562;2022-08-21T06:02:12;17.70;;;5.97;;
59512;SDS011;45330;51.634;5.562;2022-08-21T06:04:37;19.95;;;6.03;;
59512;SDS011;45330;51.634;5.562;2022-08-21T06:07:04;19.65;;;5.82;;
59512;SDS011;45330;51.634;5.562;2022-08-21T06:09:30;16.75;;;5.20;;
59512;SDS011;45330;51.634;5.562;2022-08-21T06:11:55;15.10;;;5.07;;
59512;SDS011;45330;51.634;5.562;2022-08-21T06:14:21;15.35;;;4.82;;
59512;SDS011;45330;51.634;5.562;2022-08-21T06:16:46;18.08;;;5.30;;
59512;SDS011;45330;51.634;5.562;2022-08-21T06:19:12;14.40;;;4.63;;
59512;SDS011;45330;51.634;5.562;2022-08-21T06:21:37;16.25;;;4.78;;
59512;SDS011;45330;51.634;5.562;2022-08-21T06:24:03;17.52;;;5.15;;
59512;SDS011;45330;51.634;5.562;2022-08-21T06:26:29;15.20;;;5.30;;
59512;SDS011;45330;51.634;5.562;2022-08-21T06:28:55;15.85;;;5.32;;
59512;SDS011;45330;51.634;5.562;2022-08-21T06:31:22;16.50;;;5.72;;
59512;SDS011;45330;51.634;5.562;2022-08-21T06:33:49;20.30;;;5.85;;
59512;SDS011;45330;51.634;5.562;2022-08-21T06:36:15;17.67;;;5.70;;
59512;SDS011;45330;51.634;5.562;2022-08-21T06:38:40;19.45;;;5.93;;
59512;SDS011;45330;51.634;5.562;2022-08-21T06:41:06;18.85;;;6.38;;
59512;SDS011;45330;51.634;5.562;2022-08-21T06:43:32;18.45;;;6.05;;
59512;SDS011;45330;51.634;5.562;2022-08-21T06:45:57;17.05;;;6.00;;
59512;SDS011;45330;51.634;5.562;2022-08-21T06:48:23;20.25;;;5.93;;
59512;SDS011;45330;51.634;5.562;2022-08-21T06:50:48;17.27;;;5.68;;
59512;SDS011;45330;51.634;5.562;2022-08-21T06:53:16;17.75;;;6.13;;
59512;SDS011;45330;51.634;5.562;2022-08-21T06:55:43;17.63;;;5.85;;
59512;SDS011;45330;51.634;5.562;2022-08-21T06:58:10;19.80;;;6.20;;
59512;SDS011;45330;51.634;5.562;2022-08-21T07:00:40;16.92;;;6.13;;
59512;SDS011;45330;51.634;5.562;2022-08-21T07:03:07;18.98;;;6.18;;
59512;SDS011;45330;51.634;5.562;2022-08-21T07:05:32;18.25;;;6.22;;
59512;SDS011;45330;51.634;5.562;2022-08-21T07:07:58;18.38;;;6.05;;
59512;SDS011;45330;51.634;5.562;2022-08-21T07:10:24;20.27;;;6.80;;
59512;SDS011;45330;51.634;5.562;2022-08-21T07:12:50;21.20;;;6.93;;
59512;SDS011;45330;51.634;5.562;2022-08-21T07:15:18;20.55;;;6.25;;
59512;SDS011;45330;51.634;5.562;2022-08-21T07:17:44;21.27;;;6.88;;
59512;SDS011;45330;51.634;5.562;2022-08-21T07:20:09;19.27;;;7.07;;
59512;SDS011;45330;51.634;5.562;2022-08-21T07:22:35;21.58;;;6.80;;
59512;SDS011;45330;51.634;5.562;2022-08-21T07:25:04;21.33;;;6.60;;
59512;SDS011;45330;51.634;5.562;2022-08-21T07:27:30;20.10;;;6.43;;
59512;SDS011;45330;51.634;5.562;2022-08-21T07:29:56;19.50;;;6.90;;
59512;SDS011;45330;51.634;5.562;2022-08-21T07:32:22;19.75;;;6.57;;
59512;SDS011;45330;51.634;5.562;2022-08-21T07:34:47;19.83;;;6.70;;
59512;SDS011;45330;51.634;5.562;2022-08-21T07:37:12;26.30;;;6.95;;
59512;SDS011;45330;51.634;5.562;2022-08-21T07:39:38;18.25;;;6.35;;
59512;SDS011;45330;51.634;5.562;2022-08-21T07:42:03;24.75;;;6.75;;
59512;SDS011;45330;51.634;5.562;2022-08-21T07:44:29;21.70;;;6.18;;
59512;SDS011;45330;51.634;5.562;2022-08-21T07:46:54;19.85;;;6.55;;
59512;SDS011;45330;51.634;5.562;2022-08-21T07:49:20;18.85;;;6.05;;
59512;SDS011;45330;51.634;5.562;2022-08-21T07:51:45;19.00;;;6.82;;
59512;SDS011;45330;51.634;5.562;2022-08-21T07:54:11;21.38;;;6.93;;
59512;SDS011;45330;51.634;5.562;2022-08-21T07:56:36;22.85;;;6.65;;
59512;SDS011;45330;51.634;5.562;2022-08-21T07:59:02;19.30;;;6.53;;
59512;SDS011;45330;51.634;5.562;2022-08-21T08:01:28;20.52;;;6.43;;
59512;SDS011;45330;51.634;5.562;2022-08-21T08:03:53;17.77;;;5.80;;
59512;SDS011;45330;51.634;5.562;2022-08-21T08:06:19;17.65;;;5.88;;
59512;SDS011;45330;51.634;5.562;2022-08-21T08:08:45;19.95;;;6.00;;
59512;SDS011;45330;51.634;5.562;2022-08-21T08:11:11;18.50;;;5.85;;
59512;SDS011;45330;51.634;5.562;2022-08-21T08:13:38;21.30;;;5.95;;
59512;SDS011;45330;51.634;5.562;2022-08-21T08:16:08;21.45;;;6.47;;
59512;SDS011;45330;51.634;5.562;2022-08-21T08:18:33;21.35;;;5.93;;
59512;SDS011;45330;51.634;5.562;2022-08-21T08:21:00;21.33;;;5.97;;
59512;SDS011;45330;51.634;5.562;2022-08-21T08:23:25;19.20;;;5.43;;
59512;SDS011;45330;51.634;5.562;2022-08-21T08:25:52;22.02;;;5.65;;
59512;SDS011;45330;51.634;5.562;2022-08-21T08:28:17;21.77;;;5.32;;
59512;SDS011;45330;51.634;5.562;2022-08-21T08:30:46;19.08;;;5.43;;
59512;SDS011;45330;51.634;5.562;2022-08-21T08:33:11;21.30;;;5.65;;
59512;SDS011;45330;51.634;5.562;2022-08-21T08:35:37;20.17;;;5.55;;
59512;SDS011;45330;51.634;5.562;2022-08-21T08:38:03;21.13;;;5.72;;
59512;SDS011;45330;51.634;5.562;2022-08-21T08:40:37;17.02;;;4.90;;
59512;SDS011;45330;51.634;5.562;2022-08-21T08:43:08;19.40;;;5.40;;
59512;SDS011;45330;51.634;5.562;2022-08-21T08:45:36;19.77;;;4.82;;
59512;SDS011;45330;51.634;5.562;2022-08-21T08:48:04;18.15;;;4.72;;
59512;SDS011;45330;51.634;5.562;2022-08-21T08:53:23;20.05;;;5.05;;
59512;SDS011;45330;51.634;5.562;2022-08-21T08:55:55;16.80;;;4.60;;
59512;SDS011;45330;51.634;5.562;2022-08-21T08:58:29;16.67;;;4.88;;
59512;SDS011;45330;51.634;5.562;2022-08-21T09:00:57;19.95;;;5.25;;
59512;SDS011;45330;51.634;5.562;2022-08-21T09:03:23;18.23;;;4.32;;
59512;SDS011;45330;51.634;5.562;2022-08-21T09:05:59;18.63;;;4.60;;
59512;SDS011;45330;51.634;5.562;2022-08-21T09:16:06;16.92;;;4.55;;
59512;SDS011;45330;51.634;5.562;2022-08-21T09:24:02;16.30;;;3.80;;
59512;SDS011;45330;51.634;5.562;2022-08-21T09:27:00;18.77;;;4.15;;
59512;SDS011;45330;51.634;5.562;2022-08-21T09:29:27;15.77;;;3.67;;
59512;SDS011;45330;51.634;5.562;2022-08-21T09:31:57;16.40;;;3.50;;
59512;SDS011;45330;51.634;5.562;2022-08-21T09:34:26;14.43;;;3.92;;
59512;SDS011;45330;51.634;5.562;2022-08-21T09:36:54;17.80;;;4.00;;
59512;SDS011;45330;51.634;5.562;2022-08-21T09:41:57;15.90;;;3.60;;
59512;SDS011;45330;51.634;5.562;2022-08-21T09:44:26;16.67;;;3.88;;
59512;SDS011;45330;51.634;5.562;2022-08-21T09:46:53;16.60;;;3.83;;
59512;SDS011;45330;51.634;5.562;2022-08-21T09:51:59;16.77;;;3.85;;
59512;SDS011;45330;51.634;5.562;2022-08-21T09:54:29;13.20;;;3.25;;
59512;SDS011;45330;51.634;5.562;2022-08-21T09:56:58;13.67;;;3.50;;
59512;SDS011;45330;51.634;5.562;2022-08-21T10:02:46;16.65;;;3.72;;
59512;SDS011;45330;51.634;5.562;2022-08-21T10:05:17;13.23;;;3.08;;
59512;SDS011;45330;51.634;5.562;2022-08-21T10:07:42;14.43;;;3.20;;
59512;SDS011;45330;51.634;5.562;2022-08-21T10:10:13;12.93;;;2.90;;
59512;SDS011;45330;51.634;5.562;2022-08-21T10:15:51;11.65;;;3.03;;
59512;SDS011;45330;51.634;5.562;2022-08-21T10:29:14;13.35;;;3.00;;
59512;SDS011;45330;51.634;5.562;2022-08-21T10:35:00;13.38;;;2.90;;
59512;SDS011;45330;51.634;5.562;2022-08-21T10:45:32;9.90;;;2.70;;
59512;SDS011;45330;51.634;5.562;2022-08-21T10:48:07;12.23;;;2.97;;
59512;SDS011;45330;51.634;5.562;2022-08-21T10:50:44;11.10;;;2.90;;
59512;SDS011;45330;51.634;5.562;2022-08-21T10:56:19;11.68;;;2.80;;
59512;SDS011;45330;51.634;5.562;2022-08-21T10:59:07;11.32;;;2.70;;
59512;SDS011;45330;51.634;5.562;2022-08-21T11:04:28;14.82;;;3.20;;
59512;SDS011;45330;51.634;5.562;2022-08-21T11:07:19;10.80;;;2.83;;
59512;SDS011;45330;51.634;5.562;2022-08-21T11:09:51;14.75;;;3.80;;
59512;SDS011;45330;51.634;5.562;2022-08-21T11:12:39;12.70;;;2.80;;
59512;SDS011;45330;51.634;5.562;2022-08-21T11:15:26;11.15;;;3.10;;
59512;SDS011;45330;51.634;5.562;2022-08-21T11:23:22;12.48;;;3.33;;
59512;SDS011;45330;51.634;5.562;2022-08-21T11:25:58;9.77;;;3.20;;
59512;SDS011;45330;51.634;5.562;2022-08-21T11:28:31;13.60;;;3.10;;
59512;SDS011;45330;51.634;5.562;2022-08-21T11:36:20;14.07;;;3.10;;
59512;SDS011;45330;51.634;5.562;2022-08-21T11:38:57;13.40;;;2.60;;
59512;SDS011;45330;51.634;5.562;2022-08-21T11:41:54;11.63;;;2.60;;
59512;SDS011;45330;51.634;5.562;2022-08-21T11:44:41;10.73;;;2.80;;
59512;SDS011;45330;51.634;5.562;2022-08-21T11:52:59;11.90;;;2.80;;
59512;SDS011;45330;51.634;5.562;2022-08-21T11:55:38;10.32;;;3.03;;
59512;SDS011;45330;51.634;5.562;2022-08-21T12:00:56;12.13;;;2.83;;
59512;SDS011;45330;51.634;5.562;2022-08-21T12:06:04;9.03;;;2.40;;
59512;SDS011;45330;51.634;5.562;2022-08-21T12:09:28;10.13;;;2.50;;
59512;SDS011;45330;51.634;5.562;2022-08-21T12:11:31;7.55;;;2.20;;
59512;SDS011;45330;51.634;5.562;2022-08-21T12:16:35;13.93;;;2.83;;
59512;SDS011;45330;51.634;5.562;2022-08-21T12:19:27;10.82;;;2.53;;
59512;SDS011;45330;51.634;5.562;2022-08-21T12:24:27;12.80;;;2.90;;
59512;SDS011;45330;51.634;5.562;2022-08-21T12:26:57;11.07;;;2.40;;
59512;SDS011;45330;51.634;5.562;2022-08-21T12:29:28;11.30;;;2.60;;
59512;SDS011;45330;51.634;5.562;2022-08-21T12:32:00;11.27;;;2.58;;
59512;SDS011;45330;51.634;5.562;2022-08-21T12:34:32;7.90;;;2.17;;
59512;SDS011;45330;51.634;5.562;2022-08-21T12:37:03;10.60;;;2.70;;
59512;SDS011;45330;51.634;5.562;2022-08-21T12:39:42;11.52;;;2.60;;
59512;SDS011;45330;51.634;5.562;2022-08-21T12:42:20;13.35;;;2.70;;
59512;SDS011;45330;51.634;5.562;2022-08-21T12:44:50;11.48;;;2.85;;
59512;SDS011;45330;51.634;5.562;2022-08-21T12:50:12;10.68;;;2.67;;
59512;SDS011;45330;51.634;5.562;2022-08-21T12:52:59;10.63;;;2.38;;
59512;SDS011;45330;51.634;5.562;2022-08-21T12:55:31;9.10;;;2.30;;
59512;SDS011;45330;51.634;5.562;2022-08-21T12:57:58;11.57;;;2.17;;
59512;SDS011;45330;51.634;5.562;2022-08-21T13:00:25;10.05;;;2.50;;
59512;SDS011;45330;51.634;5.562;2022-08-21T13:02:53;12.80;;;2.60;;
59512;SDS011;45330;51.634;5.562;2022-08-21T13:05:30;12.40;;;2.38;;
59512;SDS011;45330;51.634;5.562;2022-08-21T13:07:59;10.40;;;2.45;;
59512;SDS011;45330;51.634;5.562;2022-08-21T13:10:30;11.40;;;2.30;;
59512;SDS011;45330;51.634;5.562;2022-08-21T13:12:57;10.02;;;2.50;;
59512;SDS011;45330;51.634;5.562;2022-08-21T13:15:26;10.35;;;2.40;;
59512;SDS011;45330;51.634;5.562;2022-08-21T13:17:55;11.25;;;2.03;;
59512;SDS011;45330;51.634;5.562;2022-08-21T13:20:28;9.88;;;2.20;;
59512;SDS011;45330;51.634;5.562;2022-08-21T13:22:56;13.02;;;2.58;;
59512;SDS011;45330;51.634;5.562;2022-08-21T13:25:25;10.05;;;2.17;;
59512;SDS011;45330;51.634;5.562;2022-08-21T13:28:06;12.85;;;2.28;;
59512;SDS011;45330;51.634;5.562;2022-08-21T13:30:41;7.88;;;2.00;;
59512;SDS011;45330;51.634;5.562;2022-08-21T13:33:09;8.75;;;2.28;;
59512;SDS011;45330;51.634;5.562;2022-08-21T13:38:22;10.18;;;2.35;;
59512;SDS011;45330;51.634;5.562;2022-08-21T13:40:59;12.00;;;2.42;;
59512;SDS011;45330;51.634;5.562;2022-08-21T13:43:33;12.98;;;2.50;;
59512;SDS011;45330;51.634;5.562;2022-08-21T13:46:00;10.40;;;2.50;;
59512;SDS011;45330;51.634;5.562;2022-08-21T13:48:28;12.95;;;2.85;;
59512;SDS011;45330;51.634;5.562;2022-08-21T13:50:57;11.45;;;2.70;;
59512;SDS011;45330;51.634;5.562;2022-08-21T13:55:50;9.13;;;2.05;;
59512;SDS011;45330;51.634;5.562;2022-08-21T13:59:02;16.10;;;2.90;;
59512;SDS011;45330;51.634;5.562;2022-08-21T14:01:20;11.80;;;2.50;;
59512;SDS011;45330;51.634;5.562;2022-08-21T14:03:49;10.77;;;2.25;;
59512;SDS011;45330;51.634;5.562;2022-08-21T14:06:17;13.88;;;2.60;;
59512;SDS011;45330;51.634;5.562;2022-08-21T14:08:48;14.00;;;2.70;;
59512;SDS011;45330;51.634;5.562;2022-08-21T14:11:16;14.88;;;2.33;;
59512;SDS011;45330;51.634;5.562;2022-08-21T14:18:46;9.68;;;2.40;;
59512;SDS011;45330;51.634;5.562;2022-08-21T14:21:26;12.93;;;2.65;;
59512;SDS011;45330;51.634;5.562;2022-08-21T14:29:26;11.57;;;2.53;;
59512;SDS011;45330;51.634;5.562;2022-08-21T14:31:58;10.43;;;2.10;;
59512;SDS011;45330;51.634;5.562;2022-08-21T14:34:26;7.90;;;2.30;;
59512;SDS011;45330;51.634;5.562;2022-08-21T14:36:54;11.23;;;2.28;;
59512;SDS011;45330;51.634;5.562;2022-08-21T14:39:20;10.48;;;2.20;;
59512;SDS011;45330;51.634;5.562;2022-08-21T14:41:46;12.70;;;2.47;;
59512;SDS011;45330;51.634;5.562;2022-08-21T14:44:13;10.75;;;2.35;;
59512;SDS011;45330;51.634;5.562;2022-08-21T14:46:40;10.65;;;2.00;;
59512;SDS011;45330;51.634;5.562;2022-08-21T14:49:06;8.82;;;2.10;;
59512;SDS011;45330;51.634;5.562;2022-08-21T14:51:32;14.18;;;2.97;;
59512;SDS011;45330;51.634;5.562;2022-08-21T14:53:57;13.10;;;2.83;;
59512;SDS011;45330;51.634;5.562;2022-08-21T14:56:23;11.23;;;2.50;;
59512;SDS011;45330;51.634;5.562;2022-08-21T14:58:50;12.10;;;2.30;;
59512;SDS011;45330;51.634;5.562;2022-08-21T15:01:17;12.80;;;3.05;;
59512;SDS011;45330;51.634;5.562;2022-08-21T15:03:44;11.40;;;2.30;;
59512;SDS011;45330;51.634;5.562;2022-08-21T15:06:11;12.27;;;2.55;;
59512;SDS011;45330;51.634;5.562;2022-08-21T15:08:37;12.27;;;2.42;;
59512;SDS011;45330;51.634;5.562;2022-08-21T15:11:03;12.82;;;2.42;;
59512;SDS011;45330;51.634;5.562;2022-08-21T15:13:29;13.75;;;2.72;;
59512;SDS011;45330;51.634;5.562;2022-08-21T15:15:56;13.07;;;3.10;;
59512;SDS011;45330;51.634;5.562;2022-08-21T15:18:24;14.02;;;2.85;;
59512;SDS011;45330;51.634;5.562;2022-08-21T15:20:51;8.40;;;2.13;;
59512;SDS011;45330;51.634;5.562;2022-08-21T15:23:17;11.68;;;2.60;;
59512;SDS011;45330;51.634;5.562;2022-08-21T15:25:44;10.27;;;2.22;;
59512;SDS011;45330;51.634;5.562;2022-08-21T15:28:10;13.32;;;2.78;;
59512;SDS011;45330;51.634;5.562;2022-08-21T15:30:38;9.40;;;2.17;;
59512;SDS011;45330;51.634;5.562;2022-08-21T15:33:06;12.70;;;2.95;;
59512;SDS011;45330;51.634;5.562;2022-08-21T15:35:32;8.35;;;2.20;;
59512;SDS011;45330;51.634;5.562;2022-08-21T15:37:58;11.18;;;2.65;;
59512;SDS011;45330;51.634;5.562;2022-08-21T15:40:23;12.18;;;2.53;;
59512;SDS011;45330;51.634;5.562;2022-08-21T15:42:50;10.90;;;2.58;;
59512;SDS011;45330;51.634;5.562;2022-08-21T15:45:20;12.27;;;2.53;;
59512;SDS011;45330;51.634;5.562;2022-08-21T15:47:45;12.48;;;2.75;;
59512;SDS011;45330;51.634;5.562;2022-08-21T15:50:13;14.60;;;3.00;;
59512;SDS011;45330;51.634;5.562;2022-08-21T15:52:39;9.57;;;2.35;;
59512;SDS011;45330;51.634;5.562;2022-08-21T15:55:05;9.75;;;2.58;;
59512;SDS011;45330;51.634;5.562;2022-08-21T15:57:31;8.30;;;2.10;;
59512;SDS011;45330;51.634;5.562;2022-08-21T15:59:58;10.73;;;2.53;;
59512;SDS011;45330;51.634;5.562;2022-08-21T16:02:34;11.45;;;2.45;;
59512;SDS011;45330;51.634;5.562;2022-08-21T16:04:59;13.38;;;2.63;;
59512;SDS011;45330;51.634;5.562;2022-08-21T16:07:25;9.25;;;2.67;;
59512;SDS011;45330;51.634;5.562;2022-08-21T16:09:50;14.45;;;2.88;;
59512;SDS011;45330;51.634;5.562;2022-08-21T16:12:20;14.65;;;2.55;;
59512;SDS011;45330;51.634;5.562;2022-08-21T16:14:50;9.32;;;2.70;;
59512;SDS011;45330;51.634;5.562;2022-08-21T16:17:16;8.88;;;2.60;;
59512;SDS011;45330;51.634;5.562;2022-08-21T16:19:41;12.30;;;2.60;;
59512;SDS011;45330;51.634;5.562;2022-08-21T16:22:07;12.75;;;2.80;;
59512;SDS011;45330;51.634;5.562;2022-08-21T16:24:32;11.13;;;2.78;;